Time;durP1;ratioP1;P1;durP2;ratioP2;P2;SDS_P1;SDS_P2;PMS_P1;PMS_P2;Temp;Humidity;BMP_temperature;BMP_pressure;BME280_temperature;BME280_humidity;BME280_pressure;Samples;Min_cycle;Max_cycle;Signal;HPM_P1;HPM_P2
2022/09/12 00:00:44;;;;;;;2.55;1.10;;;16.20;99.90;;;;;;6234314;23;20380;-68
2022/09/12 00:03:10;;;;;;;1.83;1.05;;;16.20;99.90;;;;;;6233397;23;20035;-69
2022/09/12 00:05:46;;;;;;;1.30;1.02;;;16.20;99.90;;;;;;6235072;23;20453;-69
2022/09/12 00:08:13;;;;;;;1.60;1.40;;;16.20;99.90;;;;;;6233036;23;20004;-68
2022/09/12 00:10:41;;;;;;;2.38;1.13;;;16.20;99.90;;;;;;6234578;23;20023;-68
2022/09/12 00:13:07;;;;;;;2.10;1.23;;;16.10;99.90;;;;;;6233502;23;20081;-67
2022/09/12 00:15:43;;;;;;;1.83;1.15;;;16.10;99.90;;;;;;6227039;23;20038;-68
2022/09/12 00:18:14;;;;;;;1.85;1.33;;;16.10;99.90;;;;;;6233721;23;20354;-68
2022/09/12 00:20:44;;;;;;;2.45;1.10;;;16.10;99.90;;;;;;6230959;23;20016;-68
2022/09/12 00:23:10;;;;;;;1.30;1.20;;;16.00;99.90;;;;;;6232186;23;20421;-68
2022/09/12 00:25:43;;;;;;;1.38;1.10;;;16.00;99.90;;;;;;6234458;23;20006;-68
2022/09/12 00:28:10;;;;;;;2.40;1.10;;;16.00;99.90;;;;;;6232875;23;20058;-68
2022/09/12 00:30:40;;;;;;;1.20;1.10;;;16.00;99.90;;;;;;6204323;23;20045;-68
2022/09/12 00:33:06;;;;;;;1.75;0.90;;;16.00;99.90;;;;;;6232494;23;20018;-69
2022/09/12 00:35:32;;;;;;;2.15;1.05;;;16.00;99.90;;;;;;6229736;23;20134;-69
2022/09/12 00:37:58;;;;;;;1.75;1.00;;;16.00;99.90;;;;;;6233777;23;20070;-68
2022/09/12 00:40:23;;;;;;;1.42;1.23;;;16.00;99.90;;;;;;6208778;23;20012;-68
2022/09/12 00:42:49;;;;;;;1.00;0.90;;;16.00;99.90;;;;;;6233482;23;20007;-69
2022/09/12 00:45:23;;;;;;;1.58;1.30;;;16.00;99.90;;;;;;6228842;23;20841;-69
2022/09/12 00:47:48;;;;;;;0.90;0.90;;;15.90;99.90;;;;;;6234002;23;20011;-69
2022/09/12 00:50:16;;;;;;;1.35;1.05;;;15.90;99.90;;;;;;6235202;23;20020;-69
2022/09/12 00:52:49;;;;;;;1.65;1.17;;;15.80;99.90;;;;;;6235918;23;20043;-66
2022/09/12 00:55:29;;;;;;;1.55;1.10;;;15.80;99.90;;;;;;6232816;23;20034;-66
2022/09/12 00:58:21;;;;;;;1.48;1.08;;;15.80;99.90;;;;;;6236110;23;20004;-66
2022/09/12 01:00:47;;;;;;;1.23;1.00;;;15.70;99.90;;;;;;6209151;23;20023;-66
2022/09/12 01:03:16;;;;;;;1.05;0.95;;;15.70;99.90;;;;;;6235026;23;20054;-66
2022/09/12 01:05:52;;;;;;;1.40;1.27;;;15.70;99.90;;;;;;6233394;23;20459;-66
2022/09/12 01:08:19;;;;;;;2.00;1.15;;;15.70;99.90;;;;;;6235569;23;20406;-66
2022/09/12 01:10:46;;;;;;;1.00;0.90;;;15.70;99.90;;;;;;6234603;23;20022;-66
2022/09/12 01:13:12;;;;;;;1.30;1.20;;;15.70;99.90;;;;;;6234174;23;20007;-66
2022/09/12 01:15:38;;;;;;;1.55;1.05;;;15.80;99.90;;;;;;6230034;23;20086;-66
2022/09/12 01:18:06;;;;;;;1.52;1.02;;;15.80;99.90;;;;;;6235316;23;20000;-66
2022/09/12 01:21:13;;;;;;;0.98;0.85;;;15.70;99.90;;;;;;6235116;23;20004;-66
2022/09/12 01:23:51;;;;;;;2.33;1.15;;;15.70;99.90;;;;;;6234940;23;20000;-66
2022/09/12 01:26:36;;;;;;;1.08;0.95;;;15.70;99.90;;;;;;6235537;23;20014;-66
2022/09/12 01:29:21;;;;;;;2.78;1.05;;;15.70;99.90;;;;;;6210363;23;20047;-65
2022/09/12 01:32:00;;;;;;;1.55;1.08;;;15.70;99.90;;;;;;6234949;23;20438;-66
2022/09/12 01:34:52;;;;;;;1.27;1.00;;;15.70;99.90;;;;;;6235279;23;20015;-66
2022/09/12 01:37:31;;;;;;;1.05;0.90;;;15.80;99.90;;;;;;6235622;23;20340;-67
2022/09/12 01:40:22;;;;;;;0.80;0.80;;;15.80;99.90;;;;;;6234364;23;20008;-66
2022/09/12 01:43:00;;;;;;;1.23;1.13;;;15.80;99.90;;;;;;6202438;23;20004;-66
2022/09/12 01:45:32;;;;;;;1.10;1.00;;;15.80;99.90;;;;;;6236003;23;20091;-66
2022/09/12 01:48:07;;;;;;;1.95;0.90;;;15.80;99.90;;;;;;6228434;23;20378;-65
2022/09/12 01:50:39;;;;;;;1.23;1.10;;;15.80;99.90;;;;;;6238275;23;20139;-68
2022/09/12 01:53:21;;;;;;;1.27;1.00;;;15.80;99.90;;;;;;6235516;23;20011;-69
2022/09/12 01:56:25;;;;;;;1.30;1.20;;;15.70;99.90;;;;;;6234750;23;20030;-69
2022/09/12 01:59:02;;;;;;;1.10;1.00;;;15.70;99.90;;;;;;6211016;23;20305;-68
2022/09/12 02:01:32;;;;;;;1.45;1.35;;;15.60;99.90;;;;;;6231989;23;20000;-69
2022/09/12 02:04:18;;;;;;;0.82;0.82;;;15.60;99.90;;;;;;6233269;23;20571;-68
2022/09/12 02:06:51;;;;;;;1.08;0.98;;;15.50;99.90;;;;;;6229241;23;20015;-68
2022/09/12 02:09:25;;;;;;;1.20;0.98;;;15.50;99.90;;;;;;6234075;23;20008;-69
2022/09/12 02:11:55;;;;;;;1.00;1.00;;;15.60;99.90;;;;;;6231765;23;20397;-69
2022/09/12 02:14:25;;;;;;;6.53;1.30;;;15.60;99.90;;;;;;6232047;23;20004;-68
2022/09/12 02:17:00;;;;;;;1.13;1.02;;;15.70;99.90;;;;;;6228441;23;20012;-68
2022/09/12 02:19:34;;;;;;;1.10;1.00;;;15.70;99.90;;;;;;6232194;23;20008;-68
2022/09/12 02:22:03;;;;;;;0.98;0.98;;;15.70;99.90;;;;;;6232190;23;20011;-68
2022/09/12 02:24:32;;;;;;;1.27;1.17;;;15.70;99.90;;;;;;6234172;23;20106;-68
2022/09/12 02:27:22;;;;;;;1.10;1.00;;;15.80;99.90;;;;;;6228873;23;19996;-69
2022/09/12 02:29:49;;;;;;;1.00;0.95;;;15.80;99.90;;;;;;6232694;23;20016;-68
2022/09/12 02:32:26;;;;;;;1.45;1.35;;;15.70;99.90;;;;;;6232322;23;20391;-68
2022/09/12 02:35:02;;;;;;;1.83;1.50;;;15.70;99.90;;;;;;6232092;23;20382;-68
2022/09/12 02:37:54;;;;;;;1.20;1.10;;;15.70;99.90;;;;;;6205898;23;20057;-68
2022/09/12 02:40:21;;;;;;;1.40;1.30;;;15.60;99.90;;;;;;6235275;23;20079;-69
2022/09/12 02:42:47;;;;;;;3.85;1.63;;;15.50;99.90;;;;;;6232156;23;20071;-69
2022/09/12 02:45:14;;;;;;;1.30;1.20;;;15.50;99.90;;;;;;6232210;23;20044;-69
2022/09/12 02:47:46;;;;;;;2.50;1.27;;;15.40;99.90;;;;;;6230344;23;20000;-66
2022/09/12 02:50:12;;;;;;;1.50;1.40;;;15.40;99.90;;;;;;6233692;23;20161;-67
2022/09/12 02:52:40;;;;;;;2.28;1.50;;;15.40;99.90;;;;;;6232655;23;20007;-67
2022/09/12 02:55:06;;;;;;;1.70;1.60;;;15.40;99.90;;;;;;6234186;23;20014;-67
2022/09/12 02:57:32;;;;;;;3.95;1.60;;;15.40;99.90;;;;;;6234367;23;20622;-67
2022/09/12 03:00:00;;;;;;;2.63;1.77;;;15.40;99.90;;;;;;6235945;23;20039;-67
2022/09/12 03:02:44;;;;;;;1.75;1.65;;;15.30;99.90;;;;;;6232674;23;20054;-67
2022/09/12 03:05:33;;;;;;;4.60;1.90;;;15.30;99.90;;;;;;6234655;23;20004;-67
2022/09/12 03:08:22;;;;;;;1.73;1.63;;;15.30;99.90;;;;;;6230289;23;20004;-67
2022/09/12 03:11:04;;;;;;;1.63;1.20;;;15.30;99.90;;;;;;6233075;23;20008;-66
2022/09/12 03:14:10;;;;;;;1.52;1.40;;;15.20;99.90;;;;;;6233398;23;20004;-67
2022/09/12 03:17:00;;;;;;;1.77;1.67;;;15.20;99.90;;;;;;6148483;23;20092;-67
2022/09/12 03:19:52;;;;;;;2.53;1.48;;;15.20;99.90;;;;;;6228912;23;20007;-67
2022/09/12 03:22:21;;;;;;;;;;;15.20;99.90;;;;;;6234965;23;20008;-66
2022/09/12 03:24:53;;;;;;;2.00;1.80;;;15.20;99.90;;;;;;6233244;23;19903;-66
2022/09/12 03:27:22;;;;;;;2.30;2.10;;;15.20;99.90;;;;;;6234201;23;20087;-67
2022/09/12 03:29:49;;;;;;;2.15;1.80;;;15.20;99.90;;;;;;6232859;23;20012;-66
2022/09/12 03:32:15;;;;;;;7.55;1.83;;;15.20;99.90;;;;;;6234320;23;20032;-66
2022/09/12 03:34:40;;;;;;;2.40;1.77;;;15.20;99.90;;;;;;6233910;23;20016;-66
2022/09/12 03:37:06;;;;;;;1.70;1.60;;;15.20;99.90;;;;;;6233931;23;20011;-66
2022/09/12 03:39:32;;;;;;;3.20;2.15;;;15.20;99.90;;;;;;6235207;23;20419;-67
2022/09/12 03:41:58;;;;;;;1.80;1.70;;;15.10;99.90;;;;;;6232968;23;20370;-66
2022/09/12 03:44:24;;;;;;;2.25;2.05;;;15.20;99.90;;;;;;6234005;23;20092;-66
2022/09/12 03:46:49;;;;;;;2.08;1.88;;;15.20;99.90;;;;;;6234821;23;20004;-66
2022/09/12 03:49:16;;;;;;;1.98;1.80;;;15.20;99.90;;;;;;6230521;23;20030;-66
2022/09/12 03:51:42;;;;;;;3.28;1.75;;;15.20;99.90;;;;;;6234080;23;20028;-66
2022/09/12 03:54:08;;;;;;;1.55;1.35;;;15.20;99.90;;;;;;6233844;23;20460;-66
2022/09/12 03:56:34;;;;;;;2.00;1.70;;;15.20;99.90;;;;;;6234245;23;20159;-66
2022/09/12 03:59:00;;;;;;;2.95;1.98;;;15.10;99.90;;;;;;6233223;23;20034;-66
2022/09/12 04:01:25;;;;;;;1.65;1.55;;;15.00;99.90;;;;;;6234828;23;20008;-67
2022/09/12 04:03:51;;;;;;;1.67;1.42;;;15.00;99.90;;;;;;6232081;23;20768;-66
2022/09/12 04:06:19;;;;;;;2.70;1.90;;;14.90;99.90;;;;;;6233995;23;20519;-67
2022/09/12 04:08:49;;;;;;;1.90;1.73;;;14.80;99.90;;;;;;6233891;23;20011;-66
2022/09/12 04:11:15;;;;;;;2.25;1.80;;;14.80;99.90;;;;;;6234149;23;20008;-66
2022/09/12 04:13:43;;;;;;;3.80;1.80;;;14.80;99.90;;;;;;6234234;23;20377;-68
2022/09/12 04:16:09;;;;;;;1.85;1.75;;;14.80;99.90;;;;;;6232153;23;20012;-66
2022/09/12 04:18:35;;;;;;;1.80;1.70;;;14.80;99.90;;;;;;6234322;23;20004;-67
2022/09/12 04:21:11;;;;;;;2.33;2.00;;;14.80;99.90;;;;;;6225179;23;20004;-66
2022/09/12 04:23:36;;;;;;;1.73;1.63;;;14.80;99.90;;;;;;6235717;23;20000;-67
2022/09/12 04:26:05;;;;;;;2.10;1.73;;;14.80;99.90;;;;;;6236473;23;20361;-66
2022/09/12 04:28:31;;;;;;;2.70;2.35;;;14.80;99.90;;;;;;6236929;23;20074;-66
2022/09/12 04:31:02;;;;;;;2.03;1.83;;;14.80;99.90;;;;;;6236857;23;20042;-66
2022/09/12 04:33:28;;;;;;;2.00;1.80;;;14.80;99.90;;;;;;6236292;23;20461;-66
2022/09/12 04:35:53;;;;;;;2.88;1.88;;;14.80;99.90;;;;;;6234784;23;20453;-66
2022/09/12 04:38:19;;;;;;;2.90;1.95;;;14.80;99.90;;;;;;6236478;23;20008;-67
2022/09/12 04:40:44;;;;;;;3.53;2.40;;;14.80;99.90;;;;;;6236268;23;20047;-67
2022/09/12 04:43:10;;;;;;;4.43;1.85;;;14.80;99.90;;;;;;6236857;23;20007;-69
2022/09/12 04:45:36;;;;;;;4.15;2.10;;;14.80;99.90;;;;;;6234306;23;20010;-68
2022/09/12 04:48:01;;;;;;;3.30;2.15;;;14.80;99.90;;;;;;6236357;23;20015;-68
2022/09/12 04:50:27;;;;;;;2.65;2.45;;;14.80;99.90;;;;;;6230676;23;20016;-67
2022/09/12 04:52:54;;;;;;;1.80;1.70;;;14.90;99.90;;;;;;6234760;23;20000;-68
2022/09/12 04:55:20;;;;;;;4.43;2.00;;;14.90;99.90;;;;;;6234288;23;20058;-69
2022/09/12 04:57:46;;;;;;;2.53;1.70;;;14.90;99.90;;;;;;6236072;23;20187;-68
2022/09/12 05:00:13;;;;;;;2.00;1.80;;;15.00;99.90;;;;;;6233793;23;20473;-67
2022/09/12 05:02:40;;;;;;;2.20;2.00;;;15.10;99.90;;;;;;6236789;23;20437;-68
2022/09/12 05:05:06;;;;;;;3.72;2.00;;;15.10;99.90;;;;;;6236355;23;20008;-67
2022/09/12 05:07:32;;;;;;;2.10;1.90;;;15.30;99.90;;;;;;6207765;23;20035;-68
2022/09/12 05:09:59;;;;;;;2.33;1.60;;;15.40;99.90;;;;;;6234233;23;20155;-67
2022/09/12 05:12:25;;;;;;;3.25;2.15;;;15.50;99.90;;;;;;6236967;23;20003;-67
2022/09/12 05:14:50;;;;;;;1.90;1.80;;;15.60;99.90;;;;;;6232966;23;20012;-73
2022/09/12 05:17:16;;;;;;;1.90;1.80;;;15.70;99.90;;;;;;6234650;23;20004;-72
2022/09/12 05:19:42;;;;;;;3.92;1.98;;;15.80;99.90;;;;;;6234560;23;20446;-72
2022/09/12 05:22:08;;;;;;;2.50;1.88;;;15.90;99.90;;;;;;6229135;23;20046;-72
2022/09/12 05:24:34;;;;;;;2.47;2.05;;;16.00;99.90;;;;;;6222789;23;20067;-71
2022/09/12 05:27:02;;;;;;;1.73;1.60;;;16.10;99.90;;;;;;6234644;23;20012;-71
2022/09/12 05:29:28;;;;;;;2.42;1.67;;;16.20;99.90;;;;;;6232932;23;20008;-72
2022/09/12 05:31:53;;;;;;;3.17;2.05;;;16.40;99.90;;;;;;6232715;23;20906;-72
2022/09/12 05:34:19;;;;;;;3.53;1.60;;;16.50;99.90;;;;;;6233212;23;20038;-67
2022/09/12 05:36:45;;;;;;;3.38;2.30;;;16.60;99.90;;;;;;6206211;23;20028;-67
2022/09/12 05:39:11;;;;;;;9.18;2.95;;;16.70;99.90;;;;;;6232055;23;20628;-74
2022/09/12 05:41:37;;;;;;;1.83;1.73;;;16.80;99.90;;;;;;6221911;23;20008;-74
2022/09/12 05:44:04;;;;;;;2.92;1.92;;;16.90;99.90;;;;;;6230281;23;20071;-74
2022/09/12 05:46:35;;;;;;;5.38;2.08;;;17.00;99.90;;;;;;6232540;23;20005;-74
2022/09/12 05:49:06;;;;;;;1.73;1.63;;;17.00;99.90;;;;;;6233685;23;20083;-74
2022/09/12 05:51:35;;;;;;;1.80;1.70;;;17.10;99.90;;;;;;6227735;23;20613;-74
2022/09/12 05:54:05;;;;;;;1.90;1.73;;;17.20;99.90;;;;;;6231655;23;20007;-75
2022/09/12 05:56:33;;;;;;;2.33;1.63;;;17.40;99.90;;;;;;6235331;23;20004;-74
2022/09/12 05:58:58;;;;;;;2.53;1.45;;;17.50;99.90;;;;;;6234478;23;20035;-72
2022/09/12 06:01:25;;;;;;;2.72;1.77;;;17.50;99.90;;;;;;6235044;23;20377;-74
2022/09/12 06:03:53;;;;;;;2.58;1.73;;;17.50;99.90;;;;;;6235759;23;20003;-73
2022/09/12 06:06:20;;;;;;;1.75;1.40;;;17.50;99.90;;;;;;6233345;23;20007;-71
2022/09/12 06:08:48;;;;;;;4.15;1.85;;;17.50;99.90;;;;;;6234312;23;20377;-69
2022/09/12 06:11:22;;;;;;;2.40;1.52;;;17.60;99.90;;;;;;6231718;23;20008;-70
2022/09/12 06:13:49;;;;;;;1.80;1.25;;;17.60;99.90;;;;;;6235510;23;20284;-69
2022/09/12 06:16:18;;;;;;;2.22;1.35;;;17.60;99.90;;;;;;6234443;23;20011;-69
2022/09/12 06:18:48;;;;;;;1.40;1.30;;;17.70;99.90;;;;;;6235200;23;20330;-71
2022/09/12 06:21:15;;;;;;;2.92;1.40;;;17.80;99.90;;;;;;6235390;23;20204;-71
2022/09/12 06:23:41;;;;;;;1.52;1.38;;;18.00;99.90;;;;;;6229970;23;20336;-71
2022/09/12 06:26:08;;;;;;;1.38;1.27;;;18.00;99.90;;;;;;6206804;23;20341;-72
2022/09/12 06:28:36;;;;;;;2.10;1.63;;;18.00;99.90;;;;;;6236917;23;20091;-71
2022/09/12 06:31:15;;;;;;;3.83;1.52;;;18.10;99.90;;;;;;6233499;23;20035;-71
2022/09/12 06:33:43;;;;;;;3.00;1.20;;;18.30;99.90;;;;;;6235466;23;20923;-71
2022/09/12 06:36:16;;;;;;;1.98;1.60;;;18.50;99.90;;;;;;6235494;23;20004;-72
2022/09/12 06:38:43;;;;;;;1.63;1.50;;;18.60;99.90;;;;;;6235251;23;20004;-69
2022/09/12 06:41:12;;;;;;;2.45;1.55;;;18.60;99.90;;;;;;6234820;23;20011;-69
2022/09/12 06:43:40;;;;;;;2.38;1.70;;;18.60;99.90;;;;;;6236999;23;20322;-69
2022/09/12 06:46:06;;;;;;;1.65;1.55;;;18.50;99.90;;;;;;6235666;23;20036;-69
2022/09/12 06:48:32;;;;;;;1.40;1.30;;;18.60;99.90;;;;;;6234158;23;20001;-69
2022/09/12 06:51:00;;;;;;;2.33;1.45;;;18.70;99.90;;;;;;6232918;23;20016;-69
2022/09/12 06:53:27;;;;;;;2.45;1.85;;;18.80;99.90;;;;;;6231727;23;20075;-69
2022/09/12 06:55:57;;;;;;;1.85;1.75;;;18.80;99.90;;;;;;6234357;23;20000;-69
2022/09/12 06:58:24;;;;;;;1.98;1.70;;;18.80;99.90;;;;;;6234224;23;20007;-69
2022/09/12 07:00:51;;;;;;;1.60;1.45;;;19.00;99.90;;;;;;6235613;23;20031;-69
2022/09/12 07:03:17;;;;;;;2.00;1.48;;;19.10;99.90;;;;;;6228586;23;20487;-69
2022/09/12 07:05:44;;;;;;;1.50;1.40;;;19.20;99.90;;;;;;6233101;23;20000;-69
2022/09/12 07:08:10;;;;;;;2.67;1.80;;;19.30;99.90;;;;;;6235571;23;20008;-70
2022/09/12 07:10:35;;;;;;;1.40;1.30;;;19.30;99.90;;;;;;6233656;23;20103;-70
2022/09/12 07:13:01;;;;;;;1.58;1.40;;;19.30;99.90;;;;;;6234177;23;20004;-70
2022/09/12 07:15:26;;;;;;;1.40;1.30;;;19.40;99.90;;;;;;6231622;23;20067;-70
2022/09/12 07:17:52;;;;;;;1.33;1.20;;;19.40;99.90;;;;;;6231717;23;20031;-73
2022/09/12 07:20:18;;;;;;;1.77;1.17;;;19.40;99.90;;;;;;6226518;23;20048;-74
2022/09/12 07:22:43;;;;;;;1.23;1.13;;;19.40;99.90;;;;;;6229401;23;20103;-74
2022/09/12 07:25:09;;;;;;;1.10;1.00;;;19.40;99.90;;;;;;6230516;23;20355;-74
2022/09/12 07:27:36;;;;;;;1.60;1.20;;;19.60;99.90;;;;;;6232884;23;20083;-73
2022/09/12 07:30:04;;;;;;;2.00;1.20;;;19.70;99.90;;;;;;6229677;23;20012;-73
2022/09/12 07:32:29;;;;;;;1.48;1.20;;;19.60;99.90;;;;;;6230984;23;20513;-73
2022/09/12 07:34:55;;;;;;;0.70;0.70;;;19.50;99.90;;;;;;6228777;23;20015;-73
2022/09/12 07:37:21;;;;;;;1.13;1.10;;;19.30;99.90;;;;;;6232826;23;20110;-72
2022/09/12 07:39:46;;;;;;;1.20;1.10;;;19.10;99.90;;;;;;6234571;23;20023;-72
2022/09/12 07:42:12;;;;;;;1.33;1.23;;;19.00;99.90;;;;;;6235333;23;20071;-73
2022/09/12 07:44:38;;;;;;;1.30;1.20;;;19.00;99.90;;;;;;6234791;23;20001;-74
2022/09/12 07:47:03;;;;;;;1.48;1.38;;;19.10;99.90;;;;;;6229042;23;20207;-73
2022/09/12 07:49:29;;;;;;;2.65;1.50;;;19.30;99.90;;;;;;6229820;23;20012;-71
2022/09/12 07:51:55;;;;;;;1.77;1.52;;;19.60;99.90;;;;;;6233881;23;20079;-72
2022/09/12 07:54:21;;;;;;;1.40;1.30;;;19.70;99.90;;;;;;6226506;23;20607;-72
2022/09/12 07:56:47;;;;;;;1.50;1.40;;;19.70;99.90;;;;;;6233739;23;20430;-72
2022/09/12 07:59:13;;;;;;;1.70;1.25;;;19.70;99.90;;;;;;6227523;23;20032;-71
2022/09/12 08:01:40;;;;;;;1.40;1.30;;;19.70;99.90;;;;;;6232538;23;20449;-72
2022/09/12 08:04:06;;;;;;;1.67;1.58;;;19.80;99.90;;;;;;6231451;23;20004;-72
2022/09/12 08:06:34;;;;;;;4.10;1.40;;;19.80;99.90;;;;;;6234198;23;20008;-73
2022/09/12 08:09:00;;;;;;;1.63;1.33;;;19.70;99.90;;;;;;6226572;23;20004;-72
2022/09/12 08:11:28;;;;;;;1.42;1.33;;;19.70;99.90;;;;;;6231795;23;20031;-72
2022/09/12 08:13:55;;;;;;;1.70;1.30;;;19.70;99.90;;;;;;6234951;23;20062;-72
2022/09/12 08:16:24;;;;;;;2.78;1.52;;;19.80;99.90;;;;;;6234331;23;19996;-72
2022/09/12 08:18:50;;;;;;;3.80;1.30;;;19.80;99.90;;;;;;6232167;23;20512;-72
2022/09/12 08:21:18;;;;;;;1.70;1.60;;;19.80;99.90;;;;;;6234317;23;20000;-71
2022/09/12 08:23:44;;;;;;;4.75;1.52;;;19.80;99.90;;;;;;6237504;23;20024;-72
2022/09/12 08:26:11;;;;;;;1.48;1.35;;;19.80;99.90;;;;;;6232587;23;20724;-72
2022/09/12 08:28:40;;;;;;;1.60;1.50;;;19.70;99.90;;;;;;6235303;23;20015;-72
2022/09/12 08:31:09;;;;;;;1.60;1.50;;;19.60;99.90;;;;;;6237220;23;20011;-71
2022/09/12 08:33:35;;;;;;;1.58;1.48;;;19.30;99.90;;;;;;6238048;23;20089;-73
2022/09/12 08:36:14;;;;;;;1.38;1.27;;;19.20;99.90;;;;;;6234710;23;20008;-73
2022/09/12 08:38:45;;;;;;;1.48;1.30;;;19.10;99.90;;;;;;6233423;23;20010;-72
2022/09/12 08:41:16;;;;;;;1.60;1.50;;;19.00;99.90;;;;;;6230244;23;20100;-73
2022/09/12 08:44:19;;;;;;;2.20;1.50;;;19.00;99.90;;;;;;6236603;23;20008;-74
2022/09/12 08:46:44;;;;;;;2.13;1.27;;;18.90;99.90;;;;;;6233354;23;20009;-73
2022/09/12 08:49:16;;;;;;;1.45;1.35;;;19.20;99.90;;;;;;6234059;23;20019;-74
2022/09/12 08:51:41;;;;;;;1.70;1.40;;;19.50;99.90;;;;;;6233991;23;20018;-74
2022/09/12 08:54:23;;;;;;;2.22;1.40;;;19.80;99.90;;;;;;6233960;23;20083;-75
2022/09/12 08:56:49;;;;;;;1.40;1.30;;;20.10;99.90;;;;;;6232814;23;20010;-73
2022/09/12 08:59:15;;;;;;;1.27;1.10;;;20.20;99.90;;;;;;6232460;23;19996;-72
2022/09/12 09:01:44;;;;;;;1.65;1.30;;;20.10;99.90;;;;;;6232613;23;20011;-74
2022/09/12 09:04:32;;;;;;;3.10;1.23;;;19.90;99.90;;;;;;6228880;23;20004;-73
2022/09/12 09:07:48;;;;;;;1.60;1.35;;;19.80;99.90;;;;;;6234411;23;20008;-73
2022/09/12 09:10:29;;;;;;;5.47;1.70;;;19.60;99.90;;;;;;6126608;23;20012;-73
2022/09/12 09:13:03;;;;;;;2.92;1.38;;;19.40;99.90;;;;;;6233574;23;20008;-72
2022/09/12 09:16:06;;;;;;;1.30;1.20;;;19.20;99.90;;;;;;6235636;23;20103;-73
2022/09/12 09:18:34;;;;;;;1.77;1.60;;;19.20;99.90;;;;;;6235225;23;20011;-73
2022/09/12 09:21:05;;;;;;;2.50;1.33;;;19.40;99.90;;;;;;6233874;23;20006;-73
2022/09/12 09:23:40;;;;;;;4.40;1.50;;;19.60;99.90;;;;;;6238921;23;20000;-74
2022/09/12 09:26:33;;;;;;;1.80;1.40;;;19.80;99.90;;;;;;6235705;23;20004;-74
2022/09/12 09:29:03;;;;;;;1.33;1.23;;;20.00;99.90;;;;;;6236193;23;20035;-73
2022/09/12 09:31:36;;;;;;;1.20;1.02;;;20.20;99.90;;;;;;6237651;23;20004;-73
2022/09/12 09:34:12;;;;;;;1.10;1.10;;;20.30;99.90;;;;;;6233808;23;20524;-73
2022/09/12 09:36:50;;;;;;;1.55;1.20;;;20.40;99.90;;;;;;6237171;23;20008;-71
2022/09/12 09:39:42;;;;;;;1.25;1.15;;;20.30;99.90;;;;;;6237249;23;20008;-72
2022/09/12 09:42:22;;;;;;;1.40;1.30;;;20.20;99.90;;;;;;6234120;23;20075;-73
2022/09/12 09:44:51;;;;;;;1.42;0.98;;;20.20;99.90;;;;;;6236626;23;20004;-74
2022/09/12 09:47:18;;;;;;;1.30;1.20;;;20.30;99.90;;;;;;6234275;23;20052;-73
2022/09/12 09:49:44;;;;;;;1.33;1.17;;;20.30;99.90;;;;;;6209304;23;20477;-73
2022/09/12 09:52:14;;;;;;;1.42;1.27;;;20.30;99.90;;;;;;6234832;23;20011;-73
2022/09/12 09:54:50;;;;;;;2.00;1.30;;;20.20;99.90;;;;;;6231882;23;20008;-72
2022/09/12 09:57:34;;;;;;;1.50;1.08;;;20.10;99.90;;;;;;6233539;23;20103;-73
2022/09/12 10:00:48;;;;;;;2.92;1.10;;;20.00;99.90;;;;;;6237191;23;20023;-72
2022/09/12 10:03:44;;;;;;;1.75;1.10;;;20.00;99.90;;;;;;6199694;23;20082;-73
2022/09/12 10:06:21;;;;;;;0.70;0.70;;;19.90;99.90;;;;;;6199799;23;20005;-72
2022/09/12 10:08:48;;;;;;;1.27;1.00;;;19.80;99.90;;;;;;6232675;23;20012;-73
2022/09/12 10:11:14;;;;;;;0.80;0.80;;;19.70;99.90;;;;;;6231884;23;20529;-73
2022/09/12 10:13:53;;;;;;;1.15;1.00;;;19.50;99.90;;;;;;6231808;23;20011;-73
2022/09/12 10:16:22;;;;;;;1.30;1.20;;;19.30;99.90;;;;;;6233314;23;20004;-74
2022/09/12 10:18:49;;;;;;;1.42;1.10;;;19.30;99.90;;;;;;6232613;23;20026;-73
2022/09/12 10:21:32;;;;;;;1.92;0.98;;;19.60;99.90;;;;;;6231489;23;20172;-72
2022/09/12 10:24:18;;;;;;;2.08;1.20;;;19.90;99.90;;;;;;6233252;23;20000;-73
2022/09/12 10:26:52;;;;;;;1.20;1.10;;;19.90;99.90;;;;;;6207032;23;20496;-73
2022/09/12 10:29:31;;;;;;;2.40;1.27;;;20.00;99.90;;;;;;6236173;23;20015;-72
2022/09/12 10:32:00;;;;;;;1.85;1.20;;;20.00;99.90;;;;;;6234368;23;20011;-72
2022/09/12 10:34:31;;;;;;;1.90;1.10;;;20.00;99.90;;;;;;6228476;23;20020;-72
2022/09/12 10:37:04;;;;;;;1.17;1.10;;;19.90;99.90;;;;;;6231459;23;20043;-72
2022/09/12 10:39:32;;;;;;;2.50;1.00;;;19.80;99.90;;;;;;6233162;23;20044;-72
2022/09/12 10:41:58;;;;;;;1.20;0.90;;;19.70;99.90;;;;;;6234748;23;20031;-72
2022/09/12 10:44:27;;;;;;;2.97;1.10;;;19.60;99.90;;;;;;6232857;23;20008;-72
2022/09/12 10:46:53;;;;;;;1.10;1.00;;;19.60;99.90;;;;;;6232570;23;20004;-72
2022/09/12 10:49:36;;;;;;;0.98;0.98;;;19.50;99.90;;;;;;6233215;23;20004;-72
2022/09/12 10:52:34;;;;;;;1.13;1.02;;;19.40;99.90;;;;;;6232514;23;20004;-72
2022/09/12 10:55:00;;;;;;;1.20;1.10;;;19.30;99.90;;;;;;6185052;22;20097;-72
2022/09/12 10:57:36;;;;;;;2.50;0.95;;;19.20;99.90;;;;;;6232116;23;20499;-72
2022/09/12 11:00:16;;;;;;;2.75;1.20;;;19.00;99.90;;;;;;6232715;23;20073;-72
2022/09/12 11:03:00;;;;;;;2.25;1.08;;;19.00;99.90;;;;;;6227657;23;20001;-72
2022/09/12 11:05:50;;;;;;;1.23;0.93;;;18.90;99.90;;;;;;6231907;23;20004;-73
2022/09/12 11:08:33;;;;;;;0.90;0.90;;;18.80;99.90;;;;;;6234803;23;20008;-72
2022/09/12 11:11:09;;;;;;;1.13;1.02;;;18.80;99.90;;;;;;6232557;23;20012;-73
2022/09/12 11:14:05;;;;;;;1.85;0.80;;;18.80;99.90;;;;;;6228129;23;20521;-73
2022/09/12 11:16:43;;;;;;;1.42;1.10;;;18.80;99.90;;;;;;6230855;23;20087;-73
2022/09/12 11:19:17;;;;;;;2.38;1.40;;;19.00;99.90;;;;;;6231369;23;20011;-74
2022/09/12 11:22:01;;;;;;;2.13;0.90;;;19.00;99.90;;;;;;6233125;23;20258;-73
2022/09/12 11:25:09;;;;;;;0.88;0.88;;;19.10;99.90;;;;;;6234993;23;20014;-72
2022/09/12 11:28:03;;;;;;;1.30;1.20;;;19.00;99.90;;;;;;6236287;23;20011;-73
2022/09/12 11:30:38;;;;;;;1.70;1.10;;;19.10;99.90;;;;;;6234325;23;20012;-72
2022/09/12 11:33:29;;;;;;;1.25;1.15;;;19.10;99.90;;;;;;6229555;23;20408;-72
2022/09/12 11:35:56;;;;;;;0.90;0.90;;;19.20;99.90;;;;;;6235825;23;20373;-72
2022/09/12 11:38:48;;;;;;;0.82;0.82;;;19.50;99.90;;;;;;6232768;23;20020;-73
2022/09/12 11:41:30;;;;;;;1.77;0.90;;;19.90;99.90;;;;;;6234135;23;20079;-73
2022/09/12 11:44:00;;;;;;;;;;;20.10;99.90;;;;;;6233670;23;20073;-73
2022/09/12 11:46:36;;;;;;;1.13;1.02;;;20.40;99.90;;;;;;6231176;23;19990;-73
2022/09/12 11:49:14;;;;;;;0.63;0.63;;;20.50;99.90;;;;;;6227847;23;20009;-72
2022/09/12 11:52:04;;;;;;;1.35;0.82;;;20.50;99.70;;;;;;6233054;23;20753;-72
2022/09/12 11:54:39;;;;;;;0.85;0.85;;;20.60;99.90;;;;;;6207374;23;20003;-72
2022/09/12 11:57:34;;;;;;;1.27;0.77;;;20.70;99.90;;;;;;6201704;23;20055;-72
2022/09/12 12:00:02;;;;;;;1.25;0.80;;;20.90;99.90;;;;;;6160235;23;20012;-72
2022/09/12 12:02:35;;;;;;;1.58;0.85;;;20.90;99.90;;;;;;6229302;23;20008;-72
2022/09/12 12:05:21;;;;;;;2.00;0.90;;;20.80;99.90;;;;;;6228938;23;20452;-73
2022/09/12 12:07:58;;;;;;;0.82;0.65;;;20.90;99.90;;;;;;6230194;23;19996;-72
2022/09/12 12:10:49;;;;;;;4.18;0.98;;;21.00;99.90;;;;;;6228148;23;20091;-73
2022/09/12 12:13:30;;;;;;;2.00;0.60;;;21.20;99.50;;;;;;6212955;23;20031;-72
2022/09/12 12:16:03;;;;;;;0.70;0.70;;;21.40;99.00;;;;;;6229801;23;20547;-72
2022/09/12 12:18:31;;;;;;;1.17;0.90;;;21.50;99.00;;;;;;6232053;23;20143;-73
2022/09/12 12:21:20;;;;;;;1.35;0.80;;;21.60;97.00;;;;;;6230102;23;20066;-74
2022/09/12 12:24:07;;;;;;;0.80;0.70;;;21.70;98.30;;;;;;6229684;23;20008;-72
2022/09/12 12:26:42;;;;;;;2.63;0.77;;;21.90;99.30;;;;;;6203240;23;20489;-74
2022/09/12 12:29:16;;;;;;;0.43;0.43;;;22.10;97.30;;;;;;6229716;23;20095;-73
2022/09/12 12:32:03;;;;;;;0.77;0.60;;;22.00;96.70;;;;;;6233591;23;20004;-73
2022/09/12 12:34:30;;;;;;;3.30;0.75;;;21.90;96.90;;;;;;6225985;23;20198;-73
2022/09/12 12:36:56;;;;;;;0.50;0.50;;;21.90;97.60;;;;;;6225612;23;20038;-74
2022/09/12 12:39:41;;;;;;;0.45;0.40;;;21.90;96.20;;;;;;6231920;23;20008;-72
2022/09/12 12:42:07;;;;;;;1.23;0.70;;;21.90;95.80;;;;;;6229290;23;20661;-72
2022/09/12 12:44:46;;;;;;;0.93;0.50;;;21.70;95.30;;;;;;6233744;23;20000;-73
2022/09/12 12:47:32;;;;;;;0.73;0.65;;;21.60;94.80;;;;;;6206601;23;20081;-72
2022/09/12 12:50:00;;;;;;;0.80;0.75;;;21.50;95.30;;;;;;6231005;23;20012;-73
2022/09/12 12:52:51;;;;;;;1.17;0.70;;;21.50;95.80;;;;;;6236268;23;20000;-74
2022/09/12 12:55:21;;;;;;;1.00;0.68;;;21.60;95.50;;;;;;6232083;23;20070;-76
2022/09/12 12:57:55;;;;;;;0.50;0.50;;;21.70;95.30;;;;;;6226354;23;20081;-67
2022/09/12 13:00:24;;;;;;;1.63;0.70;;;21.80;94.30;;;;;;6229964;23;20004;-66
2022/09/12 13:03:09;;;;;;;0.65;0.65;;;21.90;95.30;;;;;;6231425;23;20000;-66
2022/09/12 13:06:07;;;;;;;1.05;0.65;;;22.10;93.10;;;;;;6235034;23;20050;-66
2022/09/12 13:08:39;;;;;;;2.92;0.90;;;22.20;93.50;;;;;;6232147;23;19996;-66
2022/09/12 13:11:15;;;;;;;2.95;1.13;;;22.30;93.00;;;;;;6229470;23;20070;-67
2022/09/12 13:13:51;;;;;;;0.68;0.60;;;22.20;92.80;;;;;;6230044;23;20019;-67
2022/09/12 13:16:36;;;;;;;0.47;0.47;;;22.20;92.90;;;;;;6228389;23;20008;-68